Home > Products > Valid Products > TAF

000
FTUS45 KTFX 050500
TAFCTB
TAF
KCTB 050520Z 0506/0606 25020KT P6SM BKN250
     FM051000 25015KT P6SM BKN150
     FM051900 26022G30KT P6SM BKN150=



000
FTUS45 KTFX 050500
TAFHLN
TAF
KHLN 050520Z 0506/0606 26006KT P6SM BKN250
     FM052100 27010KT P6SM BKN120
     FM060300 26006KT P6SM BKN250=



000
FTUS45 KTFX 050500
TAFLWT
TAF
KLWT 050520Z 0506/0606 VRB06KT P6SM BKN250
     FM050800 VRB06KT P6SM SKC
     FM051400 21006KT P6SM BKN250
     FM052000 27012KT P6SM BKN250
     FM060200 23008KT P6SM BKN250=



000
FTUS45 KTFX 050500
TAFBZN
TAF
KBZN 050520Z 0506/0606 VRB05KT P6SM BKN250
     FM052100 24007KT P6SM BKN120
     FM060200 VRB05KT P6SM BKN250=



000
FTUS45 KTFX 050500
TAFHLN
TAF
KHLN 050520Z 0506/0606 26006KT P6SM BKN250
     FM052100 27010KT P6SM BKN120
     FM060300 26006KT P6SM BKN250=



000
FTUS45 KTFX 050500
TAFHVR
TAF
KHVR 050520Z 0506/0606 VRB06KT P6SM SKC
     FM051000 22010KT P6SM BKN250
     FM052000 26012KT P6SM BKN200
     FM060200 23008KT P6SM BKN120=



000
FTUS45 KTFX 050500
TAFGTF
TAF
KGTF 050520Z 0506/0606 22012KT P6SM BKN250
     FM051900 22018G25KT P6SM BKN120
     FM060200 23012KT P6SM BKN150=



000
FTUS45 KTFX 050500
TAFBZN
TAF
KBZN 050520Z 0506/0606 VRB05KT P6SM BKN250
     FM052100 24007KT P6SM BKN120
     FM060200 VRB05KT P6SM BKN250=



000
FTUS45 KTFX 042300
TAFHVR
TAF
KHVR 042326Z 0500/0524 22010KT P6SM BKN250
     FM052000 26012KT P6SM BKN250=



000
FTUS45 KTFX 042300
TAFCTB
TAF
KCTB 042326Z 0500/0524 25018G24KT P6SM BKN250
     FM050200 25015KT P6SM BKN250
     FM051900 26026KT P6SM BKN150=



000
FTUS45 KTFX 042300
TAFLWT
TAF
KLWT 042326Z 0500/0524 20007KT P6SM BKN250
     FM052000 27012KT P6SM BKN250=



000
FTUS45 KTFX 042300
TAFGTF
TAF
KGTF 042326Z 0500/0524 21014KT P6SM BKN250
     FM051900 22018G25KT P6SM BKN150=



000
FTUS45 KTFX 042300
TAFBZN
TAF
KBZN 042326Z 0500/0524 VRB06KT P6SM SCT250=



000
FTUS45 KTFX 042300
TAFHLN
TAF
KHLN 042326Z 0500/0524 26008KT P6SM BKN250
     FM050500 VRB04KT P6SM BKN250
     FM052100 27007KT P6SM BKN120=



000
FTUS45 KTFX 042200 AAB
TAFCTB
TAF AMD
KCTB 042244Z 0423/0518 25015G25KT P6SM SCT200
     FM050600 26018G28KT P6SM BKN200=



000
FTUS45 KTFX 042000 AAA
TAFCTB
TAF AMD
KCTB 042000Z 0420/0518 22015G25KT P6SM SCT200
     FM050600 26018G28KT P6SM BKN200=



000
FTUS45 KTFX 042000 AAA
TAFCTB
TAF AMD
KCTB 042000Z 0420/0518 22015G25KT P6SM SCT200
     FM050600 26018G28KT P6SM BKN200=



000
FTUS45 KTFX 041700
TAFCTB
TAF
KCTB 041730Z 0418/0518 16008KT P6SM SKC
     FM042100 21011KT P6SM SCT200
     FM050600 26018G28KT P6SM BKN200=



000
FTUS45 KTFX 041700
TAFLWT
TAF
KLWT 041730Z 0418/0518 22006KT P6SM SKC
     FM051200 22006KT P6SM BKN180=



000
FTUS45 KTFX 041700
TAFHVR
TAF
KHVR 041730Z 0418/0518 23011KT P6SM SCT180=



000
FTUS45 KTFX 041700
TAFBZN
TAF
KBZN 041730Z 0418/0518 VRB06KT P6SM SCT200=



000
FTUS45 KTFX 041700
TAFHLN
TAF
KHLN 041730Z 0418/0518 VRB06KT P6SM SKC
     FM042100 26008KT P6SM SCT200
     FM051500 VRB06KT P6SM BKN180=



000
FTUS45 KTFX 041700
TAFGTF
TAF
KGTF 041730Z 0418/0518 21015KT P6SM SKC
     FM051500 21018G28KT P6SM BKN180=



000
FTUS45 KTFX 041600 AAA
TAFCTB
TAF AMD
KCTB 041648Z 0417/0512 20010KT P6SM SKC
     FM042000 24012G22KT P6SM SKC
     FM050500 25020KT P6SM SKC=



000
FTUS45 KTFX 041600 AAA
TAFCTB
TAF AMD
KCTB 041648Z 0417/0512 20010KT P6SM SKC
     FM042000 24012G22KT P6SM SKC
     FM050500 25020KT P6SM SKC=



000
FTUS45 KTFX 041100
TAFCTB
TAF
KCTB 041122Z 0412/0512 27007KT P6SM SCT120
     FM041600 24012KT P6SM FEW120
     FM042200 25020KT P6SM SCT120=



000
FTUS45 KTFX 041100
TAFBZN
TAF
KBZN 041122Z 0412/0512 VRB04KT P6SM SCT060
     FM041700 25005KT P6SM SCT090
     FM050200 15005KT P6SM SCT150=



000
FTUS45 KTFX 041100
TAFGTF
TAF
KGTF 041122Z 0412/0512 21007KT P6SM FEW120
     FM041600 21012KT P6SM FEW120
     FM050800 21018KT P6SM FEW120=



000
FTUS45 KTFX 041100
TAFHVR
TAF
KHVR 041122Z 0412/0512 24004KT P6SM FEW120
     FM041700 21010KT P6SM SKC=



000
FTUS45 KTFX 041100
TAFHLN
TAF
KHLN 041122Z 0412/0512 26004KT P6SM FEW120
     FM041500 25007KT P6SM SCT120
     FM050400 25003KT P6SM SKC=



000
FTUS45 KTFX 041100
TAFLWT
TAF
KLWT 041122Z 0412/0512 29010KT P6SM FEW030 SCT120
     FM041700 22007KT P6SM SKC=



000
FTUS45 KTFX 041100
TAFHVR
TAF
KHVR 041122Z 0412/0512 24004KT P6SM FEW120
     FM041700 21010KT P6SM SKC=



000
FTUS45 KTFX 041100
TAFLWT
TAF
KLWT 041122Z 0412/0512 29010KT P6SM FEW030 SCT120
     FM041700 22007KT P6SM SKC=



000
FTUS45 KTFX 041100
TAFHLN
TAF
KHLN 041122Z 0412/0512 26004KT P6SM FEW120
     FM041500 25007KT P6SM SCT120
     FM050400 25003KT P6SM SKC=



000
FTUS45 KTFX 041100
TAFGTF
TAF
KGTF 041122Z 0412/0512 21007KT P6SM FEW120
     FM041600 21012KT P6SM FEW120
     FM050800 21018KT P6SM FEW120=



000
FTUS45 KTFX 041100
TAFBZN
TAF
KBZN 041122Z 0412/0512 VRB04KT P6SM SCT060
     FM041700 25005KT P6SM SCT090
     FM050200 15005KT P6SM SCT150=



000
FTUS45 KTFX 041100
TAFCTB
TAF
KCTB 041122Z 0412/0512 27007KT P6SM SCT120
     FM041600 24012KT P6SM FEW120
     FM042200 25020KT P6SM SCT120=



000
FTUS45 KTFX 040500
TAFHLN
TAF
KHLN 040524Z 0406/0506 26006KT P6SM SCT090
     FM041500 25007KT P6SM SCT120
     FM050000 26005KT P6SM SKC=



000
FTUS45 KTFX 040500
TAFHVR
TAF
KHVR 040524Z 0406/0506 28007KT P6SM SKC
     FM042000 21010KT P6SM SKC=



000
FTUS45 KTFX 040500
TAFGTF
TAF
KGTF 040524Z 0406/0506 30006KT P6SM BKN060
     FM041000 24005KT P6SM SCT090
     FM041500 21008KT P6SM SKC=



000
FTUS45 KTFX 040500
TAFLWT
TAF
KLWT 040524Z 0406/0506 27010KT P6SM BKN070
     FM041200 25005KT P6SM SCT100
     FM041700 22007KT P6SM SKC=



000
FTUS45 KTFX 040500
TAFCTB
TAF
KCTB 040524Z 0406/0506 28007KT P6SM BKN060
     FM041200 28006KT P6SM SCT090
     FM041700 24015KT P6SM SKC=



000
FTUS45 KTFX 040500
TAFHLN
TAF
KHLN 040524Z 0406/0506 26006KT P6SM SCT090
     FM041500 25007KT P6SM SCT120
     FM050000 26005KT P6SM SKC=



000
FTUS45 KTFX 040500
TAFLWT
TAF
KLWT 040524Z 0406/0506 27010KT P6SM BKN070
     FM041200 25005KT P6SM SCT100
     FM041700 22007KT P6SM SKC=



000
FTUS45 KTFX 040500
TAFCTB
TAF
KCTB 040524Z 0406/0506 28007KT P6SM BKN060
     FM041200 28006KT P6SM SCT090
     FM041700 24015KT P6SM SKC=



000
FTUS45 KTFX 040500
TAFGTF
TAF
KGTF 040524Z 0406/0506 30006KT P6SM BKN060
     FM041000 24005KT P6SM SCT090
     FM041500 21008KT P6SM SKC=



000
FTUS45 KTFX 040500
TAFHVR
TAF
KHVR 040524Z 0406/0506 28007KT P6SM SKC
     FM042000 21010KT P6SM SKC=



000
FTUS45 KTFX 040500
TAFBZN
TAF
KBZN 040524Z 0406/0506 VRB04KT P6SM SCT060
      TEMPO 0407/0410 BKN060
     FM041700 25005KT P6SM SCT090
     FM050000 21005KT P6SM SCT150=



000
FTUS45 KTFX 040400 AAB
TAFGTF
TAF AMD
KGTF 040409Z 0404/0424 30006KT P6SM BKN070
     FM040900 24005KT P6SM BKN070
     FM041200 21008KT P6SM SCT150=



000
FTUS45 KTFX 040400 AAB
TAFGTF
TAF AMD
KGTF 040409Z 0404/0424 30006KT P6SM BKN070
     FM040900 24005KT P6SM BKN070
     FM041200 21008KT P6SM SCT150=



000
FTUS45 KTFX 040400 AAA
TAFCTB
TAF AMD
KCTB 040407Z 0404/0424 30012KT P6SM BKN080
     FM040900 28010KT P6SM SCT080
     FM041700 24014KT P6SM SCT150=



000
FTUS45 KTFX 040400 AAA
TAFCTB
TAF AMD
KCTB 040407Z 0404/0424 30012KT P6SM BKN080
     FM040900 28010KT P6SM SCT080
     FM041700 24014KT P6SM SCT150=



000
FTUS45 KTFX 040000 AAA
TAFGTF
TAF AMD
KGTF 040020Z 0400/0424 22006KT P6SM FEW150
      TEMPO 0400/0402 33012G18KT
     FM040700 24005KT P6SM BKN070
     FM041200 21008KT P6SM SCT150=



000
FTUS45 KTFX 040000 AAA
TAFGTF
TAF AMD
KGTF 040020Z 0400/0424 22006KT P6SM FEW150
      TEMPO 0400/0402 33012G18KT
     FM040700 24005KT P6SM BKN070
     FM041200 21008KT P6SM SCT150=



000
FTUS45 KTFX 032300
TAFLWT
TAF
KLWT 032338Z 0400/0424 30010KT P6SM SKC
     FM040500 25007KT P6SM SKC=



000
FTUS45 KTFX 032300
TAFHVR
TAF
KHVR 032338Z 0400/0424 29018G25KT P6SM SKC
     FM040300 29010KT P6SM SKC
     FM041800 22010KT P6SM SKC=



000
FTUS45 KTFX 032300
TAFCTB
TAF
KCTB 032338Z 0400/0424 30012KT P6SM SKC
     FM040800 25006KT P6SM BKN090
     FM041700 24014KT P6SM SCT150=



000
FTUS45 KTFX 032300
TAFGTF
TAF
KGTF 032338Z 0400/0424 22006KT P6SM FEW150
     FM040700 24005KT P6SM BKN070
     FM041200 21008KT P6SM SCT150=



000
FTUS45 KTFX 032300
TAFBZN
TAF
KBZN 032338Z 0400/0424 VRB04KT P6SM FEW090
     FM040400 VRB04KT P6SM BKN070
     FM041700 25005KT P6SM SCT090=



000
FTUS45 KTFX 032300
TAFHLN
TAF
KHLN 032338Z 0400/0424 10006KT P6SM SCT060
     FM041500 25007KT P6SM SCT150=



000
FTUS45 KTFX 032300
TAFGTF
TAF
KGTF 032338Z 0400/0424 22006KT P6SM FEW150
     FM040700 24005KT P6SM BKN070
     FM041200 21008KT P6SM SCT150=



000
FTUS45 KTFX 032300
TAFCTB
TAF
KCTB 032338Z 0400/0424 30012KT P6SM SKC
     FM040800 25006KT P6SM BKN090
     FM041700 24014KT P6SM SCT150=



000
FTUS45 KTFX 032300
TAFHVR
TAF
KHVR 032338Z 0400/0424 29018G25KT P6SM SKC
     FM040300 29010KT P6SM SKC
     FM041800 22010KT P6SM SKC=



000
FTUS45 KTFX 032300
TAFLWT
TAF
KLWT 032338Z 0400/0424 30010KT P6SM SKC
     FM040500 25007KT P6SM SKC=



000
FTUS45 KTFX 032300
TAFHLN
TAF
KHLN 032338Z 0400/0424 10006KT P6SM SCT060
     FM041500 25007KT P6SM SCT150=



000
FTUS45 KTFX 032300
TAFBZN
TAF
KBZN 032338Z 0400/0424 VRB04KT P6SM FEW090
     FM040400 VRB04KT P6SM BKN070
     FM041700 25005KT P6SM SCT090=



000
FTUS45 KTFX 031900 AAA
TAFBZN
TAF AMD
KBZN 031958Z 0320/0418 16008KT P6SM FEW050
     FM040400 16006KT P6SM BKN050
     FM041600 VRB04KT P6SM SCT050=



000
FTUS45 KTFX 031900 AAA
TAFBZN
TAF AMD
KBZN 031958Z 0320/0418 16008KT P6SM FEW050
     FM040400 16006KT P6SM BKN050
     FM041600 VRB04KT P6SM SCT050=



000
FTUS45 KTFX 031700
TAFBZN
TAF
KBZN 031739Z 0318/0418 VRB06KT P6SM BKN050
     FM041600 VRB04KT P6SM SCT050=



000
FTUS45 KTFX 031700
TAFLWT
TAF
KLWT 031739Z 0318/0418 30012KT P6SM FEW035
     FM040100 28010KT P6SM SKC
     FM041400 25006KT P6SM SKC=



000
FTUS45 KTFX 031700
TAFHVR
TAF
KHVR 031739Z 0318/0418 29018KT P6SM SCT045
     FM040300 29010KT P6SM SKC
     FM041400 24006KT P6SM SKC=



000
FTUS45 KTFX 031700
TAFCTB
TAF
KCTB 031739Z 0318/0418 30010KT P6SM SKC
     FM040300 30008KT P6SM BKN070
     FM041000 24006KT P6SM SKC
     FM041700 24010KT P6SM BKN250=



000
FTUS45 KTFX 031700
TAFHLN
TAF
KHLN 031739Z 0318/0418 VRB05KT P6SM SKC
     FM032000 30005KT P6SM SCT045
     FM040300 VRB05KT P6SM BKN045
     FM041000 VRB03KT P6SM SKC=



000
FTUS45 KTFX 031700
TAFGTF
TAF
KGTF 031739Z 0318/0418 23008KT P6SM FEW020
     FM032000 27008KT P6SM SKC
     FM040400 24007KT P6SM BKN070
     FM040900 21008KT P6SM SKC=



000
FTUS45 KTFX 031700
TAFGTF
TAF
KGTF 031739Z 0318/0418 23008KT P6SM FEW020
     FM032000 27008KT P6SM SKC
     FM040400 24007KT P6SM BKN070
     FM040900 21008KT P6SM SKC=



000
FTUS45 KTFX 031700
TAFHVR
TAF
KHVR 031739Z 0318/0418 29018KT P6SM SCT045
     FM040300 29010KT P6SM SKC
     FM041400 24006KT P6SM SKC=



000
FTUS45 KTFX 031700
TAFHLN
TAF
KHLN 031739Z 0318/0418 VRB05KT P6SM SKC
     FM032000 30005KT P6SM SCT045
     FM040300 VRB05KT P6SM BKN045
     FM041000 VRB03KT P6SM SKC=



000
FTUS45 KTFX 031700
TAFCTB
TAF
KCTB 031739Z 0318/0418 30010KT P6SM SKC
     FM040300 30008KT P6SM BKN070
     FM041000 24006KT P6SM SKC
     FM041700 24010KT P6SM BKN250=



000
FTUS45 KTFX 031700
TAFBZN
TAF
KBZN 031739Z 0318/0418 VRB06KT P6SM BKN050
     FM041600 VRB04KT P6SM SCT050=



000
FTUS45 KTFX 031700
TAFLWT
TAF
KLWT 031739Z 0318/0418 30012KT P6SM FEW035
     FM040100 28010KT P6SM SKC
     FM041400 25006KT P6SM SKC=



000
FTUS45 KTFX 031400 AAB
TAFBZN
TAF AMD
KBZN 031432Z 0315/0412 21010KT P6SM OVC050
      TEMPO 0315/0317 BKN025
     FM031700 27007KT P6SM SCT100
     FM040200 15004KT P6SM SKC=



000
FTUS45 KTFX 031300 AAA
TAFBZN
TAF AMD
KBZN 031302Z 0313/0412 30007KT P6SM VCSH OVC050
      TEMPO 0313/0315 2SM -SN BKN025
     FM031700 27007KT P6SM SCT100
     FM040200 15004KT P6SM SKC=



000
FTUS45 KTFX 031100
TAFHLN
TAF
KHLN 031120Z 0312/0412 34010KT P6SM BKN070
     FM032000 30007KT P6SM SCT200=



000
FTUS45 KTFX 031100
TAFHVR
TAF
KHVR 031120Z 0312/0412 34008KT P6SM SCT050
     FM031700 28013G20KT P6SM SCT200
     FM040200 25007KT P6SM SKC=



000
FTUS45 KTFX 031100
TAFLWT
TAF
KLWT 031120Z 0312/0412 30008KT P6SM SCT070 BKN100
     FM031800 29010KT P6SM SCT200=



000
FTUS45 KTFX 031100
TAFGTF
TAF
KGTF 031120Z 0312/0412 04008KT P6SM SCT150=



000
FTUS45 KTFX 031100
TAFCTB
TAF
KCTB 031120Z 0312/0412 30010KT P6SM SCT050
     FM032000 32008KT P6SM SCT200=



000
FTUS45 KTFX 031100
TAFBZN
TAF
KBZN 031120Z 0312/0412 30007KT P6SM VCSH OVC050
     FM031700 27007KT P6SM SCT100
     FM040200 15004KT P6SM SKC=



000
FTUS45 KTFX 030900 AAA
TAFLWT
TAF AMD
KLWT 030932Z 0310/0406 35008KT P6SM VCSH SCT020 BKN040
      TEMPO 0310/0312 3SM -SN
     FM031500 28008KT P6SM SCT050 BKN100
     FM032100 29010KT P6SM BKN120=



000
FTUS45 KTFX 030900 AAA
TAFLWT
TAF AMD
KLWT 030932Z 0310/0406 35008KT P6SM VCSH SCT020 BKN040
      TEMPO 0310/0312 3SM -SN
     FM031500 28008KT P6SM SCT050 BKN100
     FM032100 29010KT P6SM BKN120=



000
FTUS45 KTFX 030900 AAA
TAFBZN
TAF AMD
KBZN 030905Z 0309/0406 32008KT P6SM VCSH SCT025 BKN045
      TEMPO 0309/0311 3SM -SN BKN025
     FM031200 30007KT P6SM BKN060
     FM031700 30007KT P6SM BKN090
     FM040200 VRB04KT P6SM BKN120=



000
FTUS45 KTFX 030900 AAA
TAFBZN
TAF AMD
KBZN 030905Z 0309/0406 32008KT P6SM VCSH SCT025 BKN045
      TEMPO 0309/0311 3SM -SN BKN025
     FM031200 30007KT P6SM BKN060
     FM031700 30007KT P6SM BKN090
     FM040200 VRB04KT P6SM BKN120=



000
FTUS45 KTFX 030500 RRA
TAFHVR
TAF
KHVR 030541Z 0306/0406 35012G20KT P6SM SCT050 BKN100
     FM031000 34008KT P6SM BKN120
     FM031700 28011KT P6SM BKN150=



000
FTUS45 KTFX 030500 RRA
TAFBZN
TAF
KBZN 030541Z 0306/0406 34014G21KT 5SM -SN BLSN SCT010 BKN020
      TEMPO 0306/0308 1 1/2SM -SN BLSN BKN010
     FM030800 32008KT P6SM VCSH SCT025 BKN045
     FM031200 30007KT P6SM BKN060
     FM031700 30007KT P6SM BKN090
     FM040200 VRB04KT P6SM BKN120=



000
FTUS45 KTFX 030500 RRA
TAFCTB
TAF
KCTB 030541Z 0306/0406 02012KT P6SM SCT040 BKN080
     FM031500 27008KT P6SM SCT060 BKN120
     FM032100 32008KT P6SM BKN150=



000
FTUS45 KTFX 030500 RRA
TAFBZN
TAF
KBZN 030541Z 0306/0406 34014G21KT 5SM -SN BLSN SCT010 BKN020
      TEMPO 0306/0308 1 1/2SM -SN BLSN BKN010
     FM030800 32008KT P6SM VCSH SCT025 BKN045
     FM031200 30007KT P6SM BKN060
     FM031700 30007KT P6SM BKN090
     FM040200 VRB04KT P6SM BKN120=



000
FTUS45 KTFX 030500 RRA
TAFHLN
TAF
KHLN 030541Z 0306/0406 34012KT P6SM VCSH SCT025 BKN050
      TEMPO 0306/0308 5SM -SN BKN025
     FM030800 34006KT P6SM VCSH SCT035 BKN060
     FM031500 30006KT P6SM BKN080
     FM040200 26006KT P6SM BKN100=



000
FTUS45 KTFX 030500 RRA
TAFHVR
TAF
KHVR 030541Z 0306/0406 35012G20KT P6SM SCT050 BKN100
     FM031000 34008KT P6SM BKN120
     FM031700 28011KT P6SM BKN150=



000
FTUS45 KTFX 030500 RRA
TAFLWT
TAF
KLWT 030541Z 0306/0406 36010KT 3SM -SN BKN012 BKN020
      TEMPO 0306/0308 1 1/2SM -SN
     FM030800 35008KT P6SM VCSH SCT020 BKN040
     FM031500 28008KT P6SM SCT050 BKN100
     FM032100 29010KT P6SM BKN120=



000
FTUS45 KTFX 030500 RRA
TAFGTF
TAF
KGTF 030541Z 0306/0406 03012KT P6SM VCSH SCT020 BKN035
      TEMPO 0306/0308 5SM -SN BKN020
     FM030800 36008KT P6SM SCT030 BKN050
     FM031700 32007KT P6SM SCT060 BKN090
     FM040200 22007KT P6SM BKN120=



000
FTUS45 KTFX 030500 RRA
TAFHLN
TAF
KHLN 030541Z 0306/0406 34012KT P6SM VCSH SCT025 BKN050
      TEMPO 0306/0308 5SM -SN BKN025
     FM030800 34006KT P6SM VCSH SCT035 BKN060
     FM031500 30006KT P6SM BKN080
     FM040200 26006KT P6SM BKN100=



000
FTUS45 KTFX 030500 RRA
TAFCTB
TAF
KCTB 030541Z 0306/0406 02012KT P6SM SCT040 BKN080
     FM031500 27008KT P6SM SCT060 BKN120
     FM032100 32008KT P6SM BKN150=



000
FTUS45 KTFX 030500 RRA
TAFGTF
TAF
KGTF 030541Z 0306/0406 03012KT P6SM VCSH SCT020 BKN035
      TEMPO 0306/0308 5SM -SN BKN020
     FM030800 36008KT P6SM SCT030 BKN050
     FM031700 32007KT P6SM SCT060 BKN090
     FM040200 22007KT P6SM BKN120=



000
FTUS45 KTFX 030500 RRA
TAFLWT
TAF
KLWT 030541Z 0306/0406 36010KT 3SM -SN BKN012 BKN020
      TEMPO 0306/0308 1 1/2SM -SN
     FM030800 35008KT P6SM VCSH SCT020 BKN040
     FM031500 28008KT P6SM SCT050 BKN100
     FM032100 29010KT P6SM BKN120=



000
FTUS45 KTFX 030300 AAA
TAFBZN
TAF AMD
KBZN 030333Z 0304/0324 36012G20KT P6SM SCT025 BKN040
      TEMPO 0304/0306 17013KT 4SM -SN BLSN BKN025
     FM030600 34010KT 6SM -SN BLSN SCT020 BKN040
     FM031200 30007KT P6SM BKN060=



000
FTUS45 KTFX 030200 AAA
TAFHLN
TAF AMD
KHLN 030241Z 0303/0324 36015G21KT P6SM SCT025 BKN060
      TEMPO 0303/0305 5SM -SN BLSN BKN025
     FM030500 34008KT P6SM SCT040 BKN070=



000
FTUS45 KTFX 030200 AAA
TAFHLN
TAF AMD
KHLN 030241Z 0303/0324 36015G21KT P6SM SCT025 BKN060
      TEMPO 0303/0305 5SM -SN BLSN BKN025
     FM030500 34008KT P6SM SCT040 BKN070=



000
FTUS45 KTFX 030200 AAB
TAFLWT
TAF AMD
KLWT 030239Z 0303/0324 36012G18KT 4SM -SN BLSN SCT008 BKN020
      TEMPO 0303/0306 3/4SM -SN BLSN BKN008
     FM030600 35010KT P6SM VCSH SCT025 BKN045
     FM031500 27010KT P6SM SCT040 BKN080=



000
FTUS45 KTFX 030200 AAB
TAFLWT
TAF AMD
KLWT 030239Z 0303/0324 36012G18KT 4SM -SN BLSN SCT008 BKN020
      TEMPO 0303/0306 3/4SM -SN BLSN BKN008
     FM030600 35010KT P6SM VCSH SCT025 BKN045
     FM031500 27010KT P6SM SCT040 BKN080=



000
FTUS45 KTFX 030100 AAA
TAFGTF
TAF AMD
KGTF 030117Z 0301/0324 36020G25KT P6SM SCT020 BKN030
      TEMPO 0301/0303 1SM -SN BLSN BKN020
     FM030300 36015KT P6SM VCSH SCT030 BKN050
     FM030800 34008KT P6SM SCT040 BKN070
     FM031700 32007KT P6SM SCT060 BKN100=



000
FTUS45 KTFX 030100 AAA
TAFGTF
TAF AMD
KGTF 030117Z 0301/0324 36020G25KT P6SM SCT020 BKN030
      TEMPO 0301/0303 1SM -SN BLSN BKN020
     FM030300 36015KT P6SM VCSH SCT030 BKN050
     FM030800 34008KT P6SM SCT040 BKN070
     FM031700 32007KT P6SM SCT060 BKN100=



000
FTUS45 KTFX 030100 AAA
TAFLWT
TAF AMD
KLWT 030100Z 0301/0324 34012KT P6SM SCT015 BKN025
      TEMPO 0301/0303 3SM -SN BLSN BKN015
     FM030300 35010KT P6SM VCSH SCT025 BKN040
     FM031500 27010KT P6SM SCT040 BKN080=



000
FTUS45 KTFX 030100 AAA
TAFLWT
TAF AMD
KLWT 030100Z 0301/0324 34012KT P6SM SCT015 BKN025
      TEMPO 0301/0303 3SM -SN BLSN BKN015
     FM030300 35010KT P6SM VCSH SCT025 BKN040
     FM031500 27010KT P6SM SCT040 BKN080=



000
FTUS45 KTFX 022300
TAFCTB
TAF
KCTB 022337Z 0300/0324 36018G24KT P6SM SCT015 BKN025
      TEMPO 0300/0303 3SM -SN BLSN BKN015
     FM030300 36013KT P6SM VCSH SCT020 BKN040
     FM030600 35010KT P6SM BKN050
     FM031500 27008KT P6SM SCT060 BKN120=



000
FTUS45 KTFX 022300
TAFLWT
TAF
KLWT 022337Z 0300/0324 32015G21KT 4SM -SN BLSN SCT015 BKN025
      TEMPO 0300/0303 1 1/2SM -SN BLSN BKN015
     FM030300 35010KT P6SM VCSH SCT025 BKN040
     FM031500 27010KT P6SM SCT040 BKN080=



000
FTUS45 KTFX 022300
TAFBZN
TAF
KBZN 022337Z 0300/0324 35018KT P6SM SCT050 BKN090
     FM030100 35020G28KT P6SM SCT035 BKN060
      TEMPO 0301/0303 3SM -SN BLSN BKN035
     FM030300 36018G24KT 4SM -SN BLSN SCT012 BKN025
      TEMPO 0303/0307 1 1/2SM -SN BLSN BKN012
     FM030700 34010KT 6SM -SN BLSN SCT020 BKN040
     FM031200 30007KT P6SM BKN060=



000
FTUS45 KTFX 022300
TAFHVR
TAF
KHVR 022337Z 0300/0324 36017G23KT P6SM SCT030 BKN070
      TEMPO 0300/0302 3SM -SN BLSN BKN030
     FM030200 35012KT P6SM BKN050
     FM031500 28011KT P6SM BKN090=



000
FTUS45 KTFX 022300
TAFGTF
TAF
KGTF 022337Z 0300/0324 36020G30KT P6SM SCT025 BKN045
      TEMPO 0300/0303 5SM -SN BLSN BKN025
     FM030300 36015KT P6SM VCSH SCT030 BKN050
     FM030800 34008KT P6SM SCT040 BKN070
     FM031700 32007KT P6SM SCT060 BKN100=



000
FTUS45 KTFX 022300
TAFHLN
TAF
KHLN 022337Z 0300/0324 36021G30KT P6SM SCT020 BKN035
      TEMPO 0300/0303 3SM -SN BLSN BKN020
     FM030300 36015G21KT P6SM SCT025 BKN045
      TEMPO 0303/0306 5SM -SN BLSN BKN025
     FM030600 34008KT P6SM SCT030 BKN060=



000
FTUS45 KTFX 022200 AAB
TAFGTF
TAF AMD
KGTF 022255Z 0223/0318 36020G30KT P6SM SCT025 BKN045
      TEMPO 0223/0302 2SM -SN BLSN BKN025
     FM030600 36010KT 5SM -SN SCT020 OVC030
     FM031000 29008KT P6SM VCSH SCT040 BKN070
     FM031600 29007KT P6SM SCT060 BKN100=



000
FTUS45 KTFX 022200 AAB
TAFGTF
TAF AMD
KGTF 022255Z 0223/0318 36020G30KT P6SM SCT025 BKN045
      TEMPO 0223/0302 2SM -SN BLSN BKN025
     FM030600 36010KT 5SM -SN SCT020 OVC030
     FM031000 29008KT P6SM VCSH SCT040 BKN070
     FM031600 29007KT P6SM SCT060 BKN100=



000
FTUS45 KTFX 022100 AAA
TAFLWT
TAF AMD
KLWT 022152Z 0222/0318 32013G23KT 4SM -SN BLSN SCT015 OVC025
      TEMPO 0222/0302 1 1/2SM -SN BLSN BKN010
     FM030600 33010KT P6SM VCSH SCT020 OVC030
     FM031000 29010KT P6SM VCSH SCT030 BKN050
     FM031500 27010KT P6SM SCT040 BKN080=



000
FTUS45 KTFX 022100 AAA
TAFLWT
TAF AMD
KLWT 022152Z 0222/0318 32013G23KT 4SM -SN BLSN SCT015 OVC025
      TEMPO 0222/0302 1 1/2SM -SN BLSN BKN010
     FM030600 33010KT P6SM VCSH SCT020 OVC030
     FM031000 29010KT P6SM VCSH SCT030 BKN050
     FM031500 27010KT P6SM SCT040 BKN080=



000
FTUS45 KTFX 022100 AAA
TAFCTB
TAF AMD
KCTB 022150Z 0222/0318 36025G35KT 6SM -SN BLSN SCT020 OVC045
      TEMPO 0222/0302 3SM -SN BLSN BKN015
     FM030400 36012KT P6SM VCSH SCT015 BKN030
     FM030600 35018KT P6SM VCSH BKN040
     FM031000 35009KT P6SM SCT040 BKN050
     FM031500 27008KT P6SM SCT060 BKN100=



000
FTUS45 KTFX 022100 AAA
TAFCTB
TAF AMD
KCTB 022150Z 0222/0318 36025G35KT 6SM -SN BLSN SCT020 OVC045
      TEMPO 0222/0302 3SM -SN BLSN BKN015
     FM030400 36012KT P6SM VCSH SCT015 BKN030
     FM030600 35018KT P6SM VCSH BKN040
     FM031000 35009KT P6SM SCT040 BKN050
     FM031500 27008KT P6SM SCT060 BKN100=



000
FTUS45 KTFX 022100 AAA
TAFGTF
TAF AMD
KGTF 022149Z 0222/0318 01015G25KT 4SM -SN BLSN SCT018 OVC030
      TEMPO 0222/0302 1 1/2SM -SN BLSN OVC015
     FM030600 36010KT 5SM -SN SCT020 OVC030
     FM031000 29008KT P6SM VCSH SCT040 BKN070
     FM031600 29007KT P6SM SCT060 BKN100=



000
FTUS45 KTFX 022100 AAA
TAFGTF
TAF AMD
KGTF 022149Z 0222/0318 01015G25KT 4SM -SN BLSN SCT018 OVC030
      TEMPO 0222/0302 1 1/2SM -SN BLSN OVC015
     FM030600 36010KT 5SM -SN SCT020 OVC030
     FM031000 29008KT P6SM VCSH SCT040 BKN070
     FM031600 29007KT P6SM SCT060 BKN100=



000
FTUS45 KTFX 022100 AAA
TAFHVR
TAF AMD
KHVR 022148Z 0222/0318 36020G28KT 6SM -SN BLSN SCT020 OVC035
      TEMPO 0222/0301 3SM -SN BLSN BKN020
     FM030200 34012KT P6SM BKN045
     FM031400 28012KT P6SM BKN050=



000
FTUS45 KTFX 022100 AAA
TAFHVR
TAF AMD
KHVR 022148Z 0222/0318 36020G28KT 6SM -SN BLSN SCT020 OVC035
      TEMPO 0222/0301 3SM -SN BLSN BKN020
     FM030200 34012KT P6SM BKN045
     FM031400 28012KT P6SM BKN050=



000
FTUS45 KTFX 022100 AAA
TAFHLN
TAF AMD
KHLN 022142Z 0222/0318 34010G20KT 6SM -SHSN SCT025 OVC045
      TEMPO 0222/0224 3SM -SHSN BKN025
     FM030000 34018G25KT 4SM -SN SCT015 OVC030
      TEMPO 0300/0304 2SM -SN BLSN OVC015
     FM031000 29015KT 5SM -SN BKN025 OVC040
     FM031400 30007KT P6SM VCSH BKN040 OVC080=



000
FTUS45 KTFX 021700
TAFCTB
TAF
KCTB 021735Z 0218/0318 36025G35KT 4SM -SN BLSN SCT010 OVC040
      TEMPO 0218/0222 1SM -SN BLSN BKN010
     FM030400 36012KT P6SM VCSH SCT015 BKN030
     FM030600 35018KT P6SM VCSH BKN040
     FM031000 35009KT P6SM SCT040 BKN050
     FM031500 27008KT P6SM SCT060 BKN100=



000
FTUS45 KTFX 021700
TAFBZN
TAF
KBZN 021735Z 0218/0318 28007KT P6SM BKN100
     FM022300 30007KT P6SM VCSH SCT030 BKN060
     FM030200 35014G20KT 4SM -SN SCT010 BKN025
      TEMPO 0302/0306 1 1/2SM -SN BLSN OVC010
     FM031200 30012G18KT 6SM -SN BLSN OVC030=



000
FTUS45 KTFX 021700
TAFGTF
TAF
KGTF 021735Z 0218/0318 35015G24KT P6SM SCT040 BKN080
     FM022000 35015G25KT 4SM -SN BR SCT012 BKN020
      TEMPO 0300/0304 1 1/2SM -SN BLSN OVC012
     FM030600 36010KT 5SM -SN SCT020 OVC030
     FM031000 29008KT P6SM VCSH SCT040 BKN070
     FM031600 29007KT P6SM SCT060 BKN100=



000
FTUS45 KTFX 021700
TAFLWT
TAF
KLWT 021735Z 0218/0318 32010KT P6SM SCT060 BKN100
     FM022000 34013G21KT 4SM -SN BLSN SCT010 BKN020
      TEMPO 0300/0304 1 1/2SM -SN BLSN BKN010
     FM030600 33010KT P6SM VCSH SCT020 OVC030
     FM031000 29010KT P6SM VCSH SCT030 BKN050
     FM031500 27010KT P6SM SCT040 BKN080=



000
FTUS45 KTFX 021700
TAFHVR
TAF
KHVR 021735Z 0218/0318 35017G25KT P6SM VCSH SCT025 BKN080
     FM022000 36020G28KT 3SM -SN BLSN SCT010 OVC025
     FM030200 34012KT P6SM BKN045
     FM031400 28012KT P6SM BKN050=



000
FTUS45 KTFX 021700
TAFCTB
TAF
KCTB 021735Z 0218/0318 36025G35KT 4SM -SN BLSN SCT010 OVC040
      TEMPO 0218/0222 1SM -SN BLSN BKN010
     FM030400 36012KT P6SM VCSH SCT015 BKN030
     FM030600 35018KT P6SM VCSH BKN040
     FM031000 35009KT P6SM SCT040 BKN050
     FM031500 27008KT P6SM SCT060 BKN100=



000
FTUS45 KTFX 021700
TAFHLN
TAF
KHLN 021735Z 0218/0318 33006KT P6SM SCT045 SCT070 BKN120
     FM022000 34018G25KT 4SM -SN SCT015 BKN030
      TEMPO 0300/0304 2SM -SN BLSN OVC015
     FM031000 29015KT 5SM -SN BKN025 OVC040
     FM031400 30007KT P6SM VCSH BKN040 OVC080=



000
FTUS45 KTFX 021700
TAFBZN
TAF
KBZN 021735Z 0218/0318 28007KT P6SM BKN100
     FM022300 30007KT P6SM VCSH SCT030 BKN060
     FM030200 35014G20KT 4SM -SN SCT010 BKN025
      TEMPO 0302/0306 1 1/2SM -SN BLSN OVC010
     FM031200 30012G18KT 6SM -SN BLSN OVC030=



000
FTUS45 KTFX 021700
TAFGTF
TAF
KGTF 021735Z 0218/0318 35015G24KT P6SM SCT040 BKN080
     FM022000 35015G25KT 4SM -SN BR SCT012 BKN020
      TEMPO 0300/0304 1 1/2SM -SN BLSN OVC012
     FM030600 36010KT 5SM -SN SCT020 OVC030
     FM031000 29008KT P6SM VCSH SCT040 BKN070
     FM031600 29007KT P6SM SCT060 BKN100=



000
FTUS45 KTFX 021700
TAFHVR
TAF
KHVR 021735Z 0218/0318 35017G25KT P6SM VCSH SCT025 BKN080
     FM022000 36020G28KT 3SM -SN BLSN SCT010 OVC025
     FM030200 34012KT P6SM BKN045
     FM031400 28012KT P6SM BKN050=



000
FTUS45 KTFX 021700
TAFLWT
TAF
KLWT 021735Z 0218/0318 32010KT P6SM SCT060 BKN100
     FM022000 34013G21KT 4SM -SN BLSN SCT010 BKN020
      TEMPO 0300/0304 1 1/2SM -SN BLSN BKN010
     FM030600 33010KT P6SM VCSH SCT020 OVC030
     FM031000 29010KT P6SM VCSH SCT030 BKN050
     FM031500 27010KT P6SM SCT040 BKN080=



000
FTUS45 KTFX 021700
TAFHLN
TAF
KHLN 021735Z 0218/0318 33006KT P6SM SCT045 SCT070 BKN120
     FM022000 34018G25KT 4SM -SN SCT015 BKN030
      TEMPO 0300/0304 2SM -SN BLSN OVC015
     FM031000 29015KT 5SM -SN BKN025 OVC040
     FM031400 30007KT P6SM VCSH BKN040 OVC080=



000
FTUS45 KTFX 021100
TAFCTB
TAF
KCTB 021120Z 0212/0312 28012G18KT P6SM SCT050 BKN090
     FM021500 35025G35KT 2SM -SN BLSN SCT006 OVC015
      TEMPO 0216/0220 3/4SM BLSN BKN006
     FM030200 36012KT P6SM VCSH SCT015 BKN030
     FM030600 35010KT P6SM BKN040=



000
FTUS45 KTFX 021100
TAFHLN
TAF
KHLN 021120Z 0212/0312 VRB05KT P6SM BKN120
     FM021800 33006KT P6SM SCT045 BKN070
     FM022100 34018G25KT 4SM -SN SCT015 BKN030
      TEMPO 0300/0304 2SM -SN BLSN OVC015
     FM031000 29015KT P6SM VCSH BKN025 OVC040=



000
FTUS45 KTFX 021100
TAFGTF
TAF
KGTF 021120Z 0212/0312 23014G21KT P6SM SCT040 BKN080
     FM022000 32015G25KT 4SM -SN BR SCT012 BKN020
      TEMPO 0300/0304 1 1/2SM -SN BLSN OVC012
     FM030600 36010KT P6SM VCSH SCT020 OVC030=



000
FTUS45 KTFX 021100
TAFLWT
TAF
KLWT 021120Z 0212/0312 22014KT P6SM SCT060 BKN100
     FM022000 34013G21KT 4SM -SN BLSN SCT010 BKN020
      TEMPO 0300/0304 1 1/2SM -SN BLSN BKN010
     FM030600 33010KT P6SM VCSH SCT020 OVC030=



000
FTUS45 KTFX 021100
TAFHVR
TAF
KHVR 021120Z 0212/0312 24008KT P6SM SCT050 BKN090
     FM021600 35017G25KT P6SM VCSH SCT030 BKN050
     FM022000 36020G28KT 3SM -SN BLSN SCT010 OVC025
     FM030200 34012KT P6SM BKN045=



000
FTUS45 KTFX 021100
TAFHLN
TAF
KHLN 021120Z 0212/0312 VRB05KT P6SM BKN120
     FM021800 33006KT P6SM SCT045 BKN070
     FM022100 34018G25KT 4SM -SN SCT015 BKN030
      TEMPO 0300/0304 2SM -SN BLSN OVC015
     FM031000 29015KT P6SM VCSH BKN025 OVC040=



000
FTUS45 KTFX 021100
TAFLWT
TAF
KLWT 021120Z 0212/0312 22014KT P6SM SCT060 BKN100
     FM022000 34013G21KT 4SM -SN BLSN SCT010 BKN020
      TEMPO 0300/0304 1 1/2SM -SN BLSN BKN010
     FM030600 33010KT P6SM VCSH SCT020 OVC030=



000
FTUS45 KTFX 021100
TAFBZN
TAF
KBZN 021120Z 0212/0312 14004KT P6SM SCT150
     FM021800 28007KT P6SM BKN100
     FM022300 30007KT P6SM VCSH SCT030 BKN060
     FM030200 35014G20KT 4SM -SN SCT010 BKN025
      TEMPO 0302/0306 1 1/2SM -SN BLSN OVC010=



000
FTUS45 KTFX 021100
TAFCTB
TAF
KCTB 021120Z 0212/0312 28012G18KT P6SM SCT050 BKN090
     FM021500 35025G35KT 2SM -SN BLSN SCT006 OVC015
      TEMPO 0216/0220 3/4SM BLSN BKN006
     FM030200 36012KT P6SM VCSH SCT015 BKN030
     FM030600 35010KT P6SM BKN040=



000
FTUS45 KTFX 021100
TAFGTF
TAF
KGTF 021120Z 0212/0312 23014G21KT P6SM SCT040 BKN080
     FM022000 32015G25KT 4SM -SN BR SCT012 BKN020
      TEMPO 0300/0304 1 1/2SM -SN BLSN OVC012
     FM030600 36010KT P6SM VCSH SCT020 OVC030=



000
FTUS45 KTFX 021100
TAFBZN
TAF
KBZN 021120Z 0212/0312 14004KT P6SM SCT150
     FM021800 28007KT P6SM BKN100
     FM022300 30007KT P6SM VCSH SCT030 BKN060
     FM030200 35014G20KT 4SM -SN SCT010 BKN025
      TEMPO 0302/0306 1 1/2SM -SN BLSN OVC010=



000
FTUS45 KTFX 021100
TAFHVR
TAF
KHVR 021120Z 0212/0312 24008KT P6SM SCT050 BKN090
     FM021600 35017G25KT P6SM VCSH SCT030 BKN050
     FM022000 36020G28KT 3SM -SN BLSN SCT010 OVC025
     FM030200 34012KT P6SM BKN045=



    US Dept of Commerce
    National Oceanic and Atmospheric Administration
    National Weather Service
    1325 East West Highway
    Silver Spring, MD 20910
    Page Author: NWS Internet Services Team
Disclaimer
Information Quality
Credits
Glossary
Privacy Policy
Freedom of Information Act (FOIA)
About Us
Career Opportunities